Time;durP1;ratioP1;P1;durP2;ratioP2;P2;SDS_P1;SDS_P2;PMS_P1;PMS_P2;Temp;Humidity;BMP_temperature;BMP_pressure;BME280_temperature;BME280_humidity;BME280_pressure;Samples;Min_cycle;Max_cycle;Signal;HPM_P1;HPM_P2
2021/12/03 02:08:52;;;;;;;33.92;16.28;;;;;;;-0.12;88.55;98470.64;370652;142;881495;-59
2021/12/03 02:09:54;;;;;;;32.96;16.77;;;;;;;-0.19;88.57;98479.91;363395;145;857217;-59
2021/12/03 02:10:56;;;;;;;28.25;14.75;;;;;;;-0.15;88.53;98474.02;363182;147;857222;-59
2021/12/03 02:11:58;;;;;;;20.98;12.09;;;;;;;-0.09;88.48;98481.72;364060;145;857372;-59
2021/12/03 02:13:00;;;;;;;23.46;12.09;;;;;;;0.01;88.32;98474.19;363229;145;857709;-59
2021/12/03 02:14:02;;;;;;;19.86;11.75;;;;;;;0.14;88.11;98476.02;361858;147;857180;-60
2021/12/03 02:15:04;;;;;;;24.37;11.62;;;;;;;0.29;87.84;98471.08;362001;145;864772;-59
2021/12/03 02:16:07;;;;;;;24.64;11.68;;;;;;;0.49;87.45;98475.50;362980;145;857315;-57
2021/12/03 02:17:08;;;;;;;23.19;10.89;;;;;;;0.70;86.94;98474.84;364270;145;857331;-57
2021/12/03 02:18:11;;;;;;;18.74;11.27;;;;;;;0.92;86.35;98458.88;366629;144;857755;-57
2021/12/03 02:19:14;;;;;;;18.49;11.01;;;;;;;1.12;85.61;98454.76;361167;144;865075;-57
2021/12/03 02:20:16;;;;;;;21.78;10.71;;;;;;;1.34;84.76;98454.88;367490;145;858017;-58
2021/12/03 02:21:18;;;;;;;24.64;11.63;;;;;;;1.57;83.97;98449.02;363332;147;857230;-58
2021/12/03 02:22:20;;;;;;;17.80;11.19;;;;;;;1.76;83.04;98447.41;361462;145;859016;-58
2021/12/03 02:23:22;;;;;;;23.83;12.03;;;;;;;1.98;82.13;98439.81;360676;144;859032;-58
2021/12/03 02:24:24;;;;;;;17.74;11.25;;;;;;;2.19;81.48;98446.67;360755;144;866645;-58
2021/12/03 02:25:26;;;;;;;20.75;11.79;;;;;;;;;;358485;148;858015;-58
2021/12/03 02:26:28;;;;;;;24.84;13.29;;;;;;;;;;357616;147;866895;-58
2021/12/03 02:27:29;;;;;;;24.83;12.56;;;;;;;;;;358465;147;858722;-58
2021/12/03 02:28:32;;;;;;;24.17;13.29;;;;;;;;;;359130;148;859042;-58
2021/12/03 02:29:33;;;;;;;22.09;13.04;;;;;;;;;;357582;147;862883;-58
2021/12/03 02:30:35;;;;;;;21.51;13.27;;;;;;;;;;360187;147;858693;-58
2021/12/03 02:31:37;;;;;;;22.89;13.11;;;;;;;;;;357575;147;865039;-57
2021/12/03 02:32:38;;;;;;;24.72;14.61;;;;;;;;;;358501;148;864855;-58
2021/12/03 02:34:00;;;;;;;24.81;13.94;;;;;;;;;;359296;147;857365;-58
2021/12/03 02:35:01;;;;;;;28.29;15.51;;;;;;;;;;358500;147;857539;-58
2021/12/03 02:36:03;;;;;;;26.96;15.08;;;;;;;;;;359810;148;857811;-58
2021/12/03 02:37:05;;;;;;;26.53;15.22;;;;;;;;;;357152;147;864956;-58
2021/12/03 02:38:07;;;;;;;29.99;16.32;;;;;;;;;;358121;147;865089;-57
2021/12/03 02:39:09;;;;;;;26.73;15.19;;;;;;;;;;356788;147;865443;-59
2021/12/03 02:40:11;;;;;;;26.95;16.19;;;;;;;;;;357704;147;857496;-59
2021/12/03 02:41:13;;;;;;;36.29;19.85;;;;;;;;;;357434;147;858738;-59
2021/12/03 02:42:14;;;;;;;38.11;19.76;;;;;;;;;;357288;147;857229;-58
2021/12/03 02:43:16;;;;;;;39.48;19.23;;;;;;;;;;356060;148;857504;-59
2021/12/03 02:44:18;;;;;;;33.88;19.40;;;;;;;;;;356421;148;859303;-58
2021/12/03 02:45:19;;;;;;;39.66;19.30;;;;;;;;;;356967;148;858149;-58
2021/12/03 02:46:22;;;;;;;45.31;22.61;;;;;;;;;;355381;149;858805;-58
2021/12/03 02:47:23;;;;;;;49.07;23.24;;;;;;;;;;357550;149;859863;-58
2021/12/03 04:08:47;;;;;;;26.46;12.52;;;;;;;-0.58;85.13;98359.94;371874;142;870323;-57
2021/12/03 04:09:48;;;;;;;26.44;14.53;;;;;;;-0.67;85.26;98372.54;363291;147;859624;-57
2021/12/03 04:10:50;;;;;;;26.33;12.65;;;;;;;;;;364756;145;857343;-56
2021/12/03 04:11:52;;;;;;;25.73;13.51;;;;;;;;;;362948;145;857468;-57
2021/12/03 04:12:53;;;;;;;22.78;13.18;;;;;;;;;;364180;146;863719;-56
2021/12/03 04:13:55;;;;;;;26.34;15.24;;;;;;;;;;365410;147;859580;-56
2021/12/03 04:14:56;;;;;;;25.81;14.11;;;;;;;;;;362017;147;865521;-57
2021/12/03 04:15:58;;;;;;;28.71;14.64;;;;;;;;;;362101;147;864891;-56
2021/12/03 04:16:59;;;;;;;28.95;15.96;;;;;;;;;;361274;146;857436;-57
2021/12/03 04:18:01;;;;;;;30.99;16.31;;;;;;;;;;363806;147;862580;-57
2021/12/03 04:19:02;;;;;;;29.81;16.59;;;;;;;;;;364527;147;866097;-56
2021/12/03 04:20:05;;;;;;;28.19;16.31;;;;;;;;;;364408;146;865947;-57
2021/12/03 04:21:07;;;;;;;30.53;16.25;;;;;;;;;;363800;147;865691;-57
2021/12/03 04:22:08;;;;;;;31.70;15.92;;;;;;;;;;365617;147;867004;-57
2021/12/03 04:23:15;;;;;;;28.28;16.07;;;;;;;;;;364330;145;865044;-57
2021/12/03 04:24:14;;;;;;;32.26;16.88;;;;;;;;;;363587;146;857502;-56
2021/12/03 04:25:17;;;;;;;33.06;16.96;;;;;;;;;;358612;147;867023;-57
2021/12/03 04:26:19;;;;;;;27.86;16.16;;;;;;;;;;356415;147;865162;-56
2021/12/03 04:27:21;;;;;;;28.30;16.49;;;;;;;;;;357886;149;859703;-57
2021/12/03 04:28:22;;;;;;;29.64;16.91;;;;;;;;;;357265;147;865068;-57
2021/12/03 04:29:24;;;;;;;29.46;15.82;;;;;;;;;;356863;149;865062;-57
2021/12/03 04:30:27;;;;;;;28.36;16.46;;;;;;;;;;358217;147;859631;-56
2021/12/03 04:31:33;;;;;;;29.10;15.93;;;;;;;;;;354786;147;857349;-60
2021/12/03 04:32:32;;;;;;;48.38;17.80;;;;;;;;;;357422;150;857279;-59
2021/12/03 04:33:33;;;;;;;28.78;17.09;;;;;;;;;;355302;147;860926;-60
2021/12/03 04:34:35;;;;;;;27.31;15.84;;;;;;;;;;358104;147;865843;-57
2021/12/03 04:35:37;;;;;;;26.63;15.75;;;;;;;;;;357320;150;858249;-57
2021/12/03 04:36:39;;;;;;;30.51;16.04;;;;;;;;;;358619;147;859342;-58
2021/12/03 04:37:41;;;;;;;29.70;16.67;;;;;;;;;;357372;147;859279;-59
2021/12/03 04:38:43;;;;;;;30.20;16.04;;;;;;;;;;354168;148;857876;-59
2021/12/03 04:39:44;;;;;;;25.12;14.31;;;;;;;;;;358701;147;865139;-58
2021/12/03 04:40:46;;;;;;;27.30;15.88;;;;;;;;;;357295;147;857656;-60
2021/12/03 04:41:47;;;;;;;28.24;16.50;;;;;;;;;;358059;147;857468;-58
2021/12/03 04:42:49;;;;;;;28.96;16.24;;;;;;;;;;359501;147;867344;-58
2021/12/03 04:43:51;;;;;;;24.45;15.11;;;;;;;;;;357370;147;866121;-59
2021/12/03 04:44:52;;;;;;;27.44;16.04;;;;;;;;;;357576;148;864663;-56
2021/12/03 04:45:54;;;;;;;29.99;16.49;;;;;;;;;;356668;149;858825;-60
2021/12/03 04:46:55;;;;;;;29.04;15.94;;;;;;;;;;356901;147;858269;-61
2021/12/03 04:47:58;;;;;;;29.39;16.76;;;;;;;;;;356543;149;856599;-60
2021/12/03 04:48:59;;;;;;;29.65;16.88;;;;;;;;;;357622;147;857499;-59
2021/12/03 04:50:02;;;;;;;28.32;15.52;;;;;;;;;;358257;150;857820;-60
2021/12/03 04:51:04;;;;;;;29.04;16.54;;;;;;;;;;357513;149;865515;-59
2021/12/03 04:52:06;;;;;;;28.97;16.91;;;;;;;;;;358381;147;858826;-59
2021/12/03 04:53:08;;;;;;;27.93;16.46;;;;;;;;;;356783;147;857437;-58
2021/12/03 04:54:09;;;;;;;32.50;17.73;;;;;;;;;;354764;148;857816;-58
2021/12/03 04:55:11;;;;;;;28.77;16.59;;;;;;;;;;357146;148;857264;-58
2021/12/03 04:56:13;;;;;;;28.98;16.85;;;;;;;;;;358987;147;857380;-59
2021/12/03 04:57:14;;;;;;;32.38;17.66;;;;;;;;;;359042;150;857191;-59
2021/12/03 04:58:16;;;;;;;29.86;17.61;;;;;;;;;;356017;147;858921;-59
2021/12/03 04:59:17;;;;;;;29.58;16.81;;;;;;;;;;358144;147;858099;-59
2021/12/03 05:00:21;;;;;;;27.51;16.38;;;;;;;;;;356995;147;867593;-59
2021/12/03 05:01:22;;;;;;;32.00;18.07;;;;;;;;;;357019;147;865949;-59
2021/12/03 05:02:26;;;;;;;28.94;16.91;;;;;;;;;;357788;148;857384;-59
2021/12/03 05:03:29;;;;;;;29.81;16.82;;;;;;;;;;357758;147;866759;-59
2021/12/03 05:04:37;;;;;;;28.35;16.46;;;;;;;;;;357732;147;858956;-59
2021/12/03 05:05:34;;;;;;;30.16;16.95;;;;;;;;;;355551;147;859014;-59
2021/12/03 05:06:54;;;;;;;28.61;17.38;;;;;;;;;;357578;147;857783;-62
2021/12/03 05:07:58;;;;;;;24.92;15.34;;;;;;;;;;358093;147;857937;-59
2021/12/03 05:08:59;;;;;;;29.47;17.25;;;;;;;;;;355701;147;858213;-58
2021/12/03 05:10:01;;;;;;;27.51;16.84;;;;;;;;;;354623;149;859006;-61
2021/12/03 05:11:03;;;;;;;28.17;16.34;;;;;;;;;;356041;150;866783;-59
2021/12/03 05:12:05;;;;;;;29.31;17.49;;;;;;;;;;357414;148;859096;-60
2021/12/03 05:13:08;;;;;;;25.59;15.45;;;;;;;;;;355220;147;857938;-60
2021/12/03 05:14:10;;;;;;;27.14;16.52;;;;;;;;;;359191;147;858050;-57
2021/12/03 05:15:11;;;;;;;23.59;15.38;;;;;;;;;;357141;147;866842;-59
2021/12/03 05:16:14;;;;;;;27.73;15.81;;;;;;;;;;356514;148;866923;-58
2021/12/03 05:17:16;;;;;;;31.77;17.21;;;;;;;;;;355894;147;858682;-59
2021/12/03 05:18:18;;;;;;;28.78;15.76;;;;;;;;;;357714;148;866109;-59
2021/12/03 05:19:20;;;;;;;28.65;17.05;;;;;;;;;;355270;147;864957;-60
2021/12/03 05:20:23;;;;;;;24.33;15.45;;;;;;;;;;356602;149;857502;-59
2021/12/03 05:21:24;;;;;;;25.14;15.41;;;;;;;;;;358131;147;857169;-59
2021/12/03 05:22:26;;;;;;;29.09;15.11;;;;;;;;;;357726;148;865749;-60
2021/12/03 05:23:28;;;;;;;27.46;15.61;;;;;;;;;;357658;147;863573;-60
2021/12/03 05:24:29;;;;;;;27.90;15.49;;;;;;;;;;357671;149;859141;-60
2021/12/03 05:25:31;;;;;;;25.28;15.46;;;;;;;;;;358531;150;859297;-60
2021/12/03 05:26:33;;;;;;;28.33;16.03;;;;;;;;;;357709;147;865047;-60
2021/12/03 05:27:34;;;;;;;25.34;15.16;;;;;;;;;;356042;149;857304;-59
2021/12/03 05:28:36;;;;;;;26.04;15.14;;;;;;;;;;354919;150;857282;-59
2021/12/03 05:29:37;;;;;;;27.35;15.33;;;;;;;;;;358440;148;857325;-60
2021/12/03 05:30:39;;;;;;;30.59;16.91;;;;;;;;;;359246;147;860042;-59
2021/12/03 05:31:41;;;;;;;27.12;16.11;;;;;;;;;;357850;149;866932;-60
2021/12/03 05:32:42;;;;;;;22.36;13.96;;;;;;;;;;358716;148;859220;-60
2021/12/03 05:33:44;;;;;;;29.09;14.88;;;;;;;;;;358354;147;865142;-60
2021/12/03 05:34:45;;;;;;;24.99;14.76;;;;;;;;;;357530;147;857483;-60
2021/12/03 05:35:47;;;;;;;23.71;15.47;;;;;;;;;;356760;147;857619;-58
2021/12/03 05:36:48;;;;;;;26.61;15.91;;;;;;;;;;357589;150;865088;-59
2021/12/03 05:37:50;;;;;;;27.59;15.70;;;;;;;;;;357653;148;866032;-57
2021/12/03 05:38:52;;;;;;;31.49;16.11;;;;;;;;;;357410;147;859158;-58
2021/12/03 05:39:53;;;;;;;30.81;15.65;;;;;;;;;;354431;150;865982;-58
2021/12/03 05:40:55;;;;;;;24.74;15.06;;;;;;;;;;358720;148;859321;-59
2021/12/03 05:41:56;;;;;;;24.81;15.81;;;;;;;;;;357499;149;859318;-61
2021/12/03 05:42:58;;;;;;;23.49;14.98;;;;;;;;;;358308;147;857663;-59
2021/12/03 05:44:00;;;;;;;26.18;15.80;;;;;;;;;;358612;149;861075;-60
2021/12/03 05:45:01;;;;;;;29.03;16.34;;;;;;;;;;356415;149;857317;-60
2021/12/03 05:46:03;;;;;;;27.29;15.56;;;;;;;;;;354660;150;857836;-58
2021/12/03 05:47:04;;;;;;;28.13;16.26;;;;;;;;;;352083;151;865401;-60
2021/12/03 05:48:06;;;;;;;28.24;16.31;;;;;;;;;;351415;150;866457;-58
2021/12/03 05:49:08;;;;;;;26.87;16.19;;;;;;;;;;350464;150;865297;-59
2021/12/03 05:50:10;;;;;;;29.56;17.13;;;;;;;;;;355157;147;857582;-59
2021/12/03 05:51:11;;;;;;;31.77;18.01;;;;;;;;;;357224;147;857352;-59
2021/12/03 05:52:13;;;;;;;27.91;17.04;;;;;;;;;;357267;147;859552;-60
2021/12/03 05:53:15;;;;;;;32.89;18.97;;;;;;;;;;358530;147;859735;-57
2021/12/03 05:54:18;;;;;;;25.13;15.93;;;;;;;;;;358357;150;860275;-62
2021/12/03 05:55:19;;;;;;;28.73;16.36;;;;;;;;;;356396;148;857174;-62
2021/12/03 05:56:21;;;;;;;29.34;15.82;;;;;;;;;;357146;149;859043;-61
2021/12/03 05:57:23;;;;;;;26.66;15.09;;;;;;;;;;358733;148;858231;-61
2021/12/03 05:58:25;;;;;;;34.40;18.99;;;;;;;;;;356864;148;859299;-60
2021/12/03 05:59:26;;;;;;;36.82;23.19;;;;;;;;;;358798;147;867531;-60
2021/12/03 06:00:29;;;;;;;30.58;19.24;;;;;;;;;;360969;147;857619;-60
2021/12/03 06:01:31;;;;;;;26.57;16.56;;;;;;;;;;355701;150;865060;-60
2021/12/03 06:02:32;;;;;;;29.06;16.96;;;;;;;;;;357623;147;857405;-60
2021/12/03 06:03:34;;;;;;;29.58;16.36;;;;;;;;;;357900;149;865134;-58
2021/12/03 06:04:36;;;;;;;28.38;17.94;;;;;;;;;;357481;147;866771;-58
2021/12/03 06:05:40;;;;;;;31.40;19.04;;;;;;;;;;356910;147;865912;-59
2021/12/03 06:06:41;;;;;;;39.43;21.79;;;;;;;;;;356997;147;858194;-59
2021/12/03 06:07:43;;;;;;;34.67;18.64;;;;;;;;;;356412;149;857398;-62
2021/12/03 06:08:44;;;;;;;38.54;18.81;;;;;;;;;;357466;150;865414;-60
2021/12/03 06:09:46;;;;;;;31.11;18.07;;;;;;;;;;351996;150;857676;-61
2021/12/03 06:10:47;;;;;;;39.74;19.21;;;;;;;;;;353642;150;859101;-60
2021/12/03 06:11:49;;;;;;;35.17;19.09;;;;;;;;;;361961;147;859648;-59
2021/12/03 06:12:51;;;;;;;36.00;19.33;;;;;;;;;;356540;148;866033;-61
2021/12/03 06:13:52;;;;;;;33.13;18.14;;;;;;;;;;355835;148;859379;-60
2021/12/03 06:14:54;;;;;;;32.64;18.93;;;;;;;;;;358398;147;863780;-61
2021/12/03 06:15:55;;;;;;;30.92;17.19;;;;;;;;;;358811;147;860242;-61
2021/12/03 06:16:57;;;;;;;29.21;18.39;;;;;;;;;;356356;148;857236;-61
2021/12/03 06:17:58;;;;;;;32.20;17.93;;;;;;;;;;357887;149;865106;-60
2021/12/03 06:19:00;;;;;;;26.81;17.04;;;;;;;;;;351288;151;857834;-60
2021/12/03 06:20:02;;;;;;;31.94;18.62;;;;;;;;;;356802;147;857444;-60
2021/12/03 06:21:04;;;;;;;31.53;18.53;;;;;;;;;;357181;149;863989;-61
2021/12/03 06:22:06;;;;;;;35.27;17.80;;;;;;;;;;358518;147;856324;-60
2021/12/03 06:23:08;;;;;;;33.21;17.16;;;;;;;;;;357867;148;856662;-60
2021/12/03 06:24:10;;;;;;;29.24;16.96;;;;;;;;;;352036;151;859203;-60
2021/12/03 06:25:11;;;;;;;28.61;16.82;;;;;;;;;;349193;150;857637;-60
2021/12/03 06:26:14;;;;;;;30.76;17.87;;;;;;;;;;354407;151;865348;-61
2021/12/03 06:27:15;;;;;;;29.73;17.72;;;;;;;;;;357414;147;866157;-59
2021/12/03 06:28:17;;;;;;;30.84;17.50;;;;;;;;;;356177;147;865730;-59
2021/12/03 06:29:18;;;;;;;31.65;18.42;;;;;;;;;;361081;147;858984;-61
2021/12/03 06:30:21;;;;;;;29.23;17.33;;;;;;;;;;355539;148;863352;-62
2021/12/03 06:31:22;;;;;;;26.38;17.05;;;;;;;;;;355360;149;857877;-59
2021/12/03 06:32:24;;;;;;;27.96;16.33;;;;;;;;;;356648;150;857343;-59
2021/12/03 06:33:25;;;;;;;54.18;21.71;;;;;;;;;;356157;147;864444;-60
2021/12/03 06:34:27;;;;;;;105.05;37.81;;;;;;;;;;357410;147;859103;-61
2021/12/03 06:46:37;;;;;;;27.33;15.12;;;;;;;3.53;71.68;98415.85;373490;141;882453;-63
2021/12/03 06:47:39;;;;;;;32.01;18.44;;;;;;;3.42;71.75;98410.80;365812;147;857256;-63
2021/12/03 06:48:41;;;;;;;33.15;20.17;;;;;;;3.43;71.87;98408.21;366000;144;857329;-64
2021/12/03 06:49:43;;;;;;;28.42;15.86;;;;;;;3.44;71.88;98402.23;368333;144;857492;-63
2021/12/03 06:50:45;;;;;;;45.96;23.22;;;;;;;3.49;71.87;98405.63;366064;144;865102;-63
2021/12/03 06:51:49;;;;;;;60.14;32.68;;;;;;;3.54;71.46;98397.95;365775;144;857544;-63
2021/12/03 06:52:58;;;;;;;86.84;42.11;;;;;;;3.59;71.42;98403.89;365367;144;857315;-63
2021/12/03 06:54:02;;;;;;;89.33;46.05;;;;;;;3.69;71.23;98401.29;365731;144;858867;-63
2021/12/03 06:55:02;;;;;;;68.01;34.71;;;;;;;3.78;71.00;98396.98;368160;144;857320;-63
2021/12/03 06:56:08;;;;;;;37.85;20.29;;;;;;;3.91;70.91;98389.23;367021;144;864002;-62
2021/12/03 06:57:10;;;;;;;39.72;20.82;;;;;;;4.03;70.61;98381.47;367216;144;863606;-63
2021/12/03 06:58:16;;;;;;;65.06;28.63;;;;;;;4.18;70.21;98380.49;366444;144;856303;-62
2021/12/03 06:59:20;;;;;;;39.61;20.57;;;;;;;4.32;69.87;98382.12;360082;146;856217;-63
2021/12/03 07:00:23;;;;;;;45.30;23.69;;;;;;;4.47;69.44;98373.45;365981;144;856772;-63
2021/12/03 07:01:24;;;;;;;43.79;21.12;;;;;;;4.61;68.75;98383.59;366778;144;864149;-62
2021/12/03 07:02:28;;;;;;;50.84;23.51;;;;;;;4.70;68.54;98378.38;366023;144;856420;-63
2021/12/03 07:03:30;;;;;;;33.52;18.96;;;;;;;4.77;68.02;98384.28;368084;144;864188;-63
2021/12/03 07:04:32;;;;;;;28.93;14.82;;;;;;;4.79;67.80;98382.59;367894;144;864011;-63
2021/12/03 07:05:34;;;;;;;68.91;31.97;;;;;;;4.79;67.73;98382.59;356296;148;863881;-63
2021/12/03 07:06:35;;;;;;;52.47;26.09;;;;;;;4.83;67.73;98386.82;355748;147;856956;-63
2021/12/03 07:07:37;;;;;;;47.07;24.70;;;;;;;4.84;67.47;98385.95;364596;146;864021;-61
2021/12/03 07:08:39;;;;;;;30.54;17.77;;;;;;;4.83;67.33;98397.08;365394;147;863933;-63
2021/12/03 07:09:41;;;;;;;29.14;15.77;;;;;;;4.74;66.82;98392.87;363837;147;856201;-63
2021/12/03 07:10:43;;;;;;;26.41;15.69;;;;;;;4.64;67.20;98398.95;363715;146;864137;-64
2021/12/03 07:11:44;;;;;;;25.08;15.49;;;;;;;4.49;67.69;98405.91;363138;147;856457;-64
2021/12/03 07:12:46;;;;;;;30.31;16.98;;;;;;;4.37;68.18;98404.28;361867;146;864098;-64
2021/12/03 07:13:48;;;;;;;27.88;16.40;;;;;;;4.34;68.49;98408.59;362918;146;864677;-64
2021/12/03 07:14:50;;;;;;;29.66;16.67;;;;;;;4.30;68.48;98410.31;362506;146;856348;-63
2021/12/03 07:15:51;;;;;;;29.54;17.19;;;;;;;4.30;68.70;98404.35;355670;149;864279;-64
2021/12/03 07:16:53;;;;;;;28.13;17.21;;;;;;;4.33;69.10;98412.85;348037;152;863877;-64
2021/12/03 07:17:55;;;;;;;28.75;16.91;;;;;;;4.39;68.82;98411.97;361601;146;863930;-63
2021/12/03 07:18:57;;;;;;;29.99;17.48;;;;;;;4.42;68.67;98400.83;361776;146;856144;-64
2021/12/03 07:19:59;;;;;;;30.84;17.70;;;;;;;4.45;68.42;98411.92;364236;147;863793;-64
2021/12/03 07:21:01;;;;;;;28.21;17.60;;;;;;;4.47;68.40;98406.77;361408;145;856281;-64
2021/12/03 07:22:03;;;;;;;29.64;16.78;;;;;;;4.51;68.66;98411.00;362828;146;856258;-64
2021/12/03 07:23:05;;;;;;;26.99;16.24;;;;;;;4.58;68.42;98402.40;362825;146;864081;-63
2021/12/03 07:24:07;;;;;;;26.83;16.28;;;;;;;4.63;68.11;98399.81;360988;147;856664;-64
2021/12/03 07:25:09;;;;;;;27.98;16.41;;;;;;;4.67;67.69;98399.75;362315;145;865574;-64
2021/12/03 07:26:11;;;;;;;29.48;16.96;;;;;;;4.67;66.99;98404.88;363338;146;863825;-64
2021/12/03 07:27:13;;;;;;;30.31;18.01;;;;;;;4.61;67.05;98407.50;364415;145;857223;-64
2021/12/03 07:28:18;;;;;;;28.43;18.46;;;;;;;4.58;67.46;98401.56;360932;147;863951;-64
2021/12/03 07:29:19;;;;;;;27.51;18.09;;;;;;;4.48;67.45;98403.34;362711;147;856131;-64
2021/12/03 07:30:22;;;;;;;26.84;16.91;;;;;;;4.44;67.90;98412.78;362084;146;864106;-63
2021/12/03 07:31:23;;;;;;;27.90;17.46;;;;;;;;;;353156;148;863703;-64
2021/12/03 07:32:27;;;;;;;32.70;18.90;;;;;;;;;;353735;146;864618;-62
2021/12/03 07:33:30;;;;;;;27.13;17.14;;;;;;;;;;362498;146;856783;-63
2021/12/03 07:34:32;;;;;;;35.19;19.34;;;;;;;;;;355695;149;857023;-63
2021/12/03 07:35:34;;;;;;;51.39;23.61;;;;;;;;;;355388;149;857066;-63
2021/12/03 07:36:35;;;;;;;91.99;37.82;;;;;;;;;;362563;147;864105;-63
2021/12/03 07:37:37;;;;;;;90.16;36.03;;;;;;;;;;361542;146;856332;-63
2021/12/03 07:38:39;;;;;;;60.86;27.04;;;;;;;;;;357118;149;863674;-63
2021/12/03 07:39:40;;;;;;;37.19;18.71;;;;;;;;;;360804;147;865733;-64
2021/12/03 07:40:42;;;;;;;32.13;17.19;;;;;;;;;;365212;147;864365;-64
2021/12/03 07:41:44;;;;;;;37.77;17.64;;;;;;;;;;362776;147;856843;-64
2021/12/03 07:42:45;;;;;;;26.69;16.38;;;;;;;;;;359869;147;864098;-63
2021/12/03 07:43:47;;;;;;;27.79;15.76;;;;;;;;;;362760;147;859647;-63
2021/12/03 07:44:49;;;;;;;28.28;16.89;;;;;;;;;;362052;145;856782;-63
2021/12/03 07:45:50;;;;;;;26.81;16.51;;;;;;;;;;355722;151;857573;-64
2021/12/03 07:46:52;;;;;;;25.86;16.33;;;;;;;;;;357156;150;856697;-63
2021/12/03 07:47:54;;;;;;;28.13;17.62;;;;;;;;;;356593;149;862240;-63
2021/12/03 07:48:55;;;;;;;27.45;16.20;;;;;;;;;;357473;149;863895;-64
2021/12/03 07:49:57;;;;;;;29.47;16.29;;;;;;;;;;356566;150;856293;-63
2021/12/03 07:50:58;;;;;;;31.98;16.20;;;;;;;;;;357882;149;856728;-65
2021/12/03 07:52:00;;;;;;;28.14;17.49;;;;;;;;;;357647;149;857190;-63
2021/12/03 07:53:02;;;;;;;30.00;17.06;;;;;;;;;;355487;149;863790;-64
2021/12/03 07:54:04;;;;;;;28.82;17.15;;;;;;;;;;357642;150;864342;-64
2021/12/03 07:55:05;;;;;;;35.87;17.84;;;;;;;;;;357060;149;856145;-64
2021/12/03 07:56:11;;;;;;;28.48;16.73;;;;;;;;;;358132;149;856380;-63
2021/12/03 07:57:12;;;;;;;28.75;17.35;;;;;;;;;;354860;150;856192;-64
2021/12/03 07:58:14;;;;;;;30.04;17.57;;;;;;;;;;356439;149;856726;-63
2021/12/03 07:59:16;;;;;;;28.56;17.61;;;;;;;;;;357026;149;863762;-64
2021/12/03 08:00:18;;;;;;;33.13;17.57;;;;;;;;;;356482;149;863879;-64
2021/12/03 08:01:19;;;;;;;28.83;17.64;;;;;;;;;;355181;149;856033;-63
2021/12/03 08:02:23;;;;;;;29.23;17.06;;;;;;;;;;356148;150;856320;-64
2021/12/03 08:03:25;;;;;;;31.89;17.90;;;;;;;;;;356450;149;856917;-64
2021/12/03 08:04:26;;;;;;;30.31;17.41;;;;;;;;;;355205;149;856018;-63
2021/12/03 08:05:28;;;;;;;30.89;20.18;;;;;;;;;;355334;149;856127;-63
2021/12/03 08:06:31;;;;;;;30.49;18.70;;;;;;;;;;357710;149;857308;-63
2021/12/03 08:07:32;;;;;;;33.53;18.85;;;;;;;;;;356344;149;863980;-63
2021/12/03 08:08:36;;;;;;;29.17;18.23;;;;;;;;;;357104;150;856086;-63
2021/12/03 08:09:38;;;;;;;30.87;19.23;;;;;;;;;;354884;149;863770;-62
2021/12/03 08:10:40;;;;;;;30.89;19.07;;;;;;;;;;355625;149;856630;-63
2021/12/03 08:11:42;;;;;;;28.81;18.45;;;;;;;;;;358961;149;856017;-63
2021/12/03 08:12:44;;;;;;;34.80;18.70;;;;;;;;;;356186;150;856377;-64
2021/12/03 08:13:45;;;;;;;29.06;18.57;;;;;;;;;;356883;149;863980;-64
2021/12/03 08:14:47;;;;;;;35.49;19.78;;;;;;;;;;357720;149;856805;-64
2021/12/03 08:15:48;;;;;;;33.07;18.81;;;;;;;;;;357997;149;857485;-64
2021/12/03 08:16:50;;;;;;;28.24;17.46;;;;;;;;;;356398;149;864033;-64
2021/12/03 08:17:52;;;;;;;29.03;17.59;;;;;;;;;;357478;149;863951;-64
2021/12/03 08:18:53;;;;;;;32.46;18.49;;;;;;;;;;357941;149;856245;-64
2021/12/03 08:19:55;;;;;;;31.54;17.86;;;;;;;;;;356302;149;857002;-63
2021/12/03 08:20:56;;;;;;;28.96;18.15;;;;;;;;;;355554;149;856580;-63
2021/12/03 08:21:58;;;;;;;29.71;17.98;;;;;;;;;;356385;149;864348;-63
2021/12/03 08:23:00;;;;;;;34.23;19.48;;;;;;;;;;355308;149;863798;-64
2021/12/03 08:24:01;;;;;;;38.62;20.17;;;;;;;;;;355834;149;856377;-64
2021/12/03 08:25:03;;;;;;;40.54;20.71;;;;;;;;;;355556;149;856163;-63
2021/12/03 08:26:05;;;;;;;37.76;19.27;;;;;;;;;;357136;150;856410;-64
2021/12/03 08:27:06;;;;;;;27.04;16.70;;;;;;;;;;358224;150;856470;-63
2021/12/03 08:28:08;;;;;;;31.31;16.80;;;;;;;;;;357133;150;856480;-63
2021/12/03 08:29:10;;;;;;;27.09;17.02;;;;;;;;;;357686;149;863890;-63
2021/12/03 08:30:13;;;;;;;27.93;17.55;;;;;;;;;;355699;150;864294;-64
2021/12/03 08:31:15;;;;;;;29.04;16.59;;;;;;;;;;354736;150;856871;-63
2021/12/03 08:32:17;;;;;;;28.07;16.20;;;;;;;;;;356875;149;856498;-64
2021/12/03 08:33:18;;;;;;;26.50;16.93;;;;;;;;;;354425;150;856211;-63
2021/12/03 08:34:20;;;;;;;28.78;16.78;;;;;;;;;;359054;150;863847;-63
2021/12/03 08:35:21;;;;;;;26.90;16.68;;;;;;;;;;355824;149;856297;-64
2021/12/03 08:36:23;;;;;;;28.13;16.61;;;;;;;;;;357356;149;856062;-63
2021/12/03 08:37:25;;;;;;;36.71;18.03;;;;;;;;;;355111;150;864360;-63
2021/12/03 08:38:26;;;;;;;30.97;18.14;;;;;;;;;;356666;150;863521;-64
2021/12/03 08:39:29;;;;;;;35.45;17.79;;;;;;;;;;356366;150;856435;-63
2021/12/03 08:40:30;;;;;;;29.64;17.82;;;;;;;;;;356586;150;863970;-64
2021/12/03 08:41:33;;;;;;;28.96;17.17;;;;;;;;;;355104;150;856813;-63
2021/12/03 08:42:35;;;;;;;30.49;17.23;;;;;;;;;;356440;150;863948;-63
2021/12/03 08:43:37;;;;;;;28.28;16.53;;;;;;;;;;355082;149;856245;-63
2021/12/03 08:44:39;;;;;;;31.29;17.94;;;;;;;;;;357979;149;856357;-64
2021/12/03 08:45:41;;;;;;;32.05;17.51;;;;;;;;;;358021;150;856642;-64
2021/12/03 08:46:43;;;;;;;31.14;16.83;;;;;;;;;;357320;147;864574;-63
2021/12/03 08:47:49;;;;;;;32.09;17.70;;;;;;;;;;358607;148;863974;-63
2021/12/03 08:48:49;;;;;;;30.26;16.78;;;;;;;;;;358567;149;856669;-63
2021/12/03 08:49:53;;;;;;;33.27;17.80;;;;;;;;;;359711;148;856646;-63
2021/12/03 08:54:48;;;;;;;30.54;18.03;;;;;;;;;;335506;158;858427;-64
2021/12/03 08:55:44;;;;;;;27.64;16.72;;;;;;;;;;358707;148;856123;-64
2021/12/03 08:56:45;;;;;;;27.68;17.36;;;;;;;;;;359757;148;856237;-63
2021/12/03 08:57:47;;;;;;;27.97;16.72;;;;;;;;;;359076;147;864175;-63
2021/12/03 08:58:48;;;;;;;27.32;17.19;;;;;;;;;;359211;147;857240;-63
2021/12/03 08:59:50;;;;;;;28.39;17.76;;;;;;;;;;357251;148;856289;-63
2021/12/03 09:00:52;;;;;;;32.17;18.35;;;;;;;;;;359450;147;856333;-64
2021/12/03 09:01:53;;;;;;;29.99;17.08;;;;;;;;;;358988;147;856051;-63
2021/12/03 09:02:55;;;;;;;32.79;18.13;;;;;;;;;;357689;149;857262;-63
2021/12/03 09:03:56;;;;;;;29.95;18.73;;;;;;;;;;360284;148;856440;-63
2021/12/03 09:06:49;;;;;;;32.46;18.63;;;;;;;4.27;68.46;98468.42;369423;142;880640;-62
2021/12/03 09:07:50;;;;;;;32.29;17.49;;;;;;;;;;363325;144;857135;-61
2021/12/03 09:08:52;;;;;;;28.74;17.39;;;;;;;;;;362096;145;856186;-61
2021/12/03 09:09:53;;;;;;;32.66;18.81;;;;;;;;;;363088;147;856378;-61
2021/12/03 09:10:55;;;;;;;33.91;18.89;;;;;;;;;;363541;147;864333;-61
2021/12/03 09:11:56;;;;;;;35.19;18.68;;;;;;;;;;362451;145;856699;-61
2021/12/03 09:12:58;;;;;;;31.81;18.53;;;;;;;;;;364250;145;856452;-61
2021/12/03 09:14:05;;;;;;;33.94;19.51;;;;;;;;;;363207;147;864620;-61
2021/12/03 09:15:06;;;;;;;33.41;18.91;;;;;;;;;;361745;144;864482;-61
2021/12/03 09:16:10;;;;;;;31.82;19.81;;;;;;;;;;362491;145;856452;-60
2021/12/03 09:17:22;;;;;;;31.60;19.20;;;;;;;;;;364151;145;856250;-61
2021/12/03 09:19:40;;;;;;;35.91;20.19;;;;;;;;;;353251;148;856746;-60
2021/12/03 09:21:59;;;;;;;32.56;20.49;;;;;;;;;;362921;145;856170;-58
2021/12/03 09:23:03;;;;;;;35.39;21.17;;;;;;;;;;362149;144;856966;-59
2021/12/03 09:24:16;;;;;;;35.42;19.82;;;;;;;;;;360823;144;863640;-58
2021/12/03 09:25:19;;;;;;;34.47;20.12;;;;;;;;;;358874;147;856538;-59
2021/12/03 09:26:22;;;;;;;31.78;18.89;;;;;;;;;;358684;148;856232;-58
2021/12/03 09:27:23;;;;;;;34.86;19.29;;;;;;;;;;358724;147;855990;-59
2021/12/03 09:28:27;;;;;;;37.85;19.33;;;;;;;;;;359059;147;856793;-58